N1764T CYQI-CYZX

Flight info

Callsign N1764T
Flight time 0h 55m
Altitude 5000
Route SEBET
Aircraft P28A/L-SDFG/C

Departure

Time 2026-05-07 18:57
Airport Yarmouth Airport (CYQI)

Arrival

Time 2026-05-07 19:52
Airport CFB Greenwood (CYZX)
Time Latitude Longitude Altitude Speed Heading
2026-05-07 18:43 43.82947 -66.08741 116 ft 0 kts 216°
2026-05-07 18:49 43.82947 -66.08742 116 ft 1 kts 214°
2026-05-07 18:49 43.82951 -66.08738 116 ft 2 kts 211°
2026-05-07 18:49 43.82963 -66.08728 116 ft 0 kts 211°
2026-05-07 18:49 43.82948 -66.08719 116 ft 6 kts 137°
2026-05-07 18:50 43.82883 -66.08695 116 ft 13 kts 177°
2026-05-07 18:50 43.82770 -66.08686 116 ft 11 kts 175°
2026-05-07 18:50 43.82765 -66.08686 116 ft 0 kts 175°
2026-05-07 18:50 43.82754 -66.08686 116 ft 6 kts 180°
2026-05-07 18:51 43.82678 -66.08681 116 ft 15 kts 178°
2026-05-07 18:51 43.82574 -66.08716 116 ft 19 kts 216°
2026-05-07 18:51 43.82456 -66.08859 117 ft 25 kts 221°
2026-05-07 18:51 43.82317 -66.09033 120 ft 28 kts 221°
2026-05-07 18:52 43.82168 -66.09217 118 ft 29 kts 221°
2026-05-07 18:52 43.82012 -66.09405 122 ft 31 kts 223°
2026-05-07 18:52 43.81852 -66.09606 123 ft 31 kts 221°
2026-05-07 18:52 43.81785 -66.09729 124 ft 11 kts 267°
2026-05-07 18:53 43.81766 -66.09753 124 ft 0 kts 76°
2026-05-07 18:54 43.81766 -66.09750 122 ft 3 kts 79°
2026-05-07 18:55 43.81776 -66.09687 123 ft 5 kts 43°
2026-05-07 18:55 43.81777 -66.09686 123 ft 0 kts 43°
2026-05-07 18:56 43.81873 -66.09568 121 ft 46 kts 43°
2026-05-07 18:56 43.82206 -66.09130 226 ft 74 kts 44°
2026-05-07 18:56 43.82553 -66.08590 463 ft 76 kts 46°
2026-05-07 18:56 43.82906 -66.08058 717 ft 74 kts 42°
2026-05-07 18:57 43.83274 -66.07490 906 ft 81 kts 42°
2026-05-07 18:57 43.83636 -66.06930 1145 ft 81 kts 44°
2026-05-07 18:57 43.84007 -66.06353 1390 ft 79 kts 40°
2026-05-07 18:57 43.84402 -66.05803 1618 ft 80 kts 43°
2026-05-07 18:58 43.84751 -66.05196 1820 ft 84 kts 50°
2026-05-07 18:58 43.85075 -66.04504 2036 ft 86 kts 54°
2026-05-07 18:58 43.85415 -66.03804 2212 ft 89 kts 49°
2026-05-07 18:58 43.85800 -66.03137 2425 ft 90 kts 46°
2026-05-07 18:59 43.86184 -66.02448 2620 ft 91 kts 48°
2026-05-07 18:59 43.86575 -66.01766 2802 ft 93 kts 47°
2026-05-07 18:59 43.86984 -66.01057 3000 ft 95 kts 47°
2026-05-07 18:59 43.87435 -66.00274 3000 ft 112 kts 49°
2026-05-07 19:00 43.87918 -65.99390 3027 ft 117 kts 46°
2026-05-07 19:00 43.88507 -65.98621 3051 ft 116 kts 31°
2026-05-07 19:00 43.89180 -65.98016 3079 ft 117 kts 27°
2026-05-07 19:00 43.89885 -65.97411 3031 ft 122 kts 26°
2026-05-07 19:01 43.90598 -65.96790 3028 ft 120 kts 28°
2026-05-07 19:01 43.91310 -65.96213 3015 ft 117 kts 19°
2026-05-07 19:01 43.92065 -65.95775 2986 ft 118 kts 16°
2026-05-07 19:01 43.92818 -65.95326 2997 ft 118 kts 18°
2026-05-07 19:02 43.93557 -65.94833 3006 ft 118 kts 20°
2026-05-07 19:02 43.94293 -65.94314 3006 ft 119 kts 21°
2026-05-07 19:02 43.95016 -65.93772 3017 ft 119 kts 23°
2026-05-07 19:02 43.95738 -65.93206 3028 ft 119 kts 22°
2026-05-07 19:03 43.96465 -65.92664 3036 ft 119 kts 21°
2026-05-07 19:03 43.97193 -65.92101 3055 ft 119 kts 26°
2026-05-07 19:03 43.97884 -65.91491 3064 ft 120 kts 28°
2026-05-07 19:03 43.98584 -65.90827 3104 ft 116 kts 29°
2026-05-07 19:04 43.99167 -65.90279 3406 ft 100 kts 25°
2026-05-07 19:04 43.99757 -65.89747 3549 ft 105 kts 26°
2026-05-07 19:04 44.00332 -65.89127 3735 ft 105 kts 32°
2026-05-07 19:04 44.00892 -65.88439 3890 ft 107 kts 36°
2026-05-07 19:05 44.01435 -65.87701 4023 ft 113 kts 39°
2026-05-07 19:05 44.02001 -65.86985 4207 ft 110 kts 36°
2026-05-07 19:05 44.02587 -65.86252 4343 ft 114 kts 36°
2026-05-07 19:05 44.03180 -65.85527 4476 ft 116 kts 35°
2026-05-07 19:06 44.03799 -65.84810 4647 ft 113 kts 34°
2026-05-07 19:06 44.04973 -65.83384 4927 ft 119 kts 36°
2026-05-07 19:06 44.05601 -65.82622 5020 ft 124 kts 35°
2026-05-07 19:07 44.06243 -65.81827 5034 ft 126 kts 38°
2026-05-07 19:07 44.06887 -65.80981 5032 ft 128 kts 38°
2026-05-07 19:07 44.07555 -65.80161 5051 ft 128 kts 33°
2026-05-07 19:07 44.08252 -65.79381 5038 ft 129 kts 32°
2026-05-07 19:08 44.08965 -65.78612 5029 ft 131 kts 32°
2026-05-07 19:08 44.09675 -65.77821 5067 ft 130 kts 34°
2026-05-07 19:08 44.10373 -65.77016 5067 ft 132 kts 34°
2026-05-07 19:08 44.11069 -65.76194 5086 ft 131 kts 35°
2026-05-07 19:09 44.11785 -65.75404 5043 ft 133 kts 29°
2026-05-07 19:09 44.12506 -65.74616 5046 ft 133 kts 36°
2026-05-07 19:09 44.13223 -65.73803 5058 ft 131 kts 32°
2026-05-07 19:09 44.13974 -65.73071 5023 ft 134 kts 26°
2026-05-07 19:10 44.14752 -65.72400 5051 ft 130 kts 25°
2026-05-07 19:10 44.15544 -65.71742 5008 ft 133 kts 23°
2026-05-07 19:10 44.16339 -65.71130 5029 ft 129 kts 20°
2026-05-07 19:10 44.17143 -65.70511 4967 ft 133 kts 22°
2026-05-07 19:11 44.17951 -65.69910 4979 ft 130 kts 20°
2026-05-07 19:11 44.18763 -65.69343 4950 ft 131 kts 18°
2026-05-07 19:11 44.19584 -65.68879 4951 ft 126 kts
2026-05-07 19:11 44.20433 -65.68592 4917 ft 127 kts
2026-05-07 19:12 44.21279 -65.68237 4931 ft 125 kts
2026-05-07 19:12 44.22090 -65.67790 4964 ft 126 kts 20°
2026-05-07 19:12 44.22828 -65.67081 4930 ft 133 kts 31°
2026-05-07 19:12 44.23313 -65.66563 5022 ft 125 kts 31°
2026-05-07 19:13 44.24006 -65.65828 5024 ft 129 kts 31°
2026-05-07 19:13 44.24715 -65.65066 5042 ft 128 kts 31°
2026-05-07 19:13 44.25426 -65.64303 5011 ft 132 kts 32°
2026-05-07 19:13 44.26163 -65.63511 5004 ft 134 kts 31°
2026-05-07 19:14 44.26910 -65.62777 5034 ft 129 kts 24°
2026-05-07 19:14 44.27688 -65.62137 5008 ft 132 kts 23°
2026-05-07 19:14 44.28464 -65.61441 5010 ft 132 kts 28°
2026-05-07 19:14 44.29210 -65.60700 5009 ft 130 kts 29°
2026-05-07 19:15 44.29955 -65.59961 4971 ft 133 kts 30°
2026-05-07 19:15 44.30681 -65.59182 4988 ft 132 kts 33°
2026-05-07 19:15 44.31380 -65.58358 5018 ft 130 kts 34°
2026-05-07 19:15 44.32095 -65.57588 5019 ft 130 kts 30°
2026-05-07 19:16 44.32832 -65.56861 5030 ft 129 kts 28°
2026-05-07 19:16 44.33572 -65.56154 5029 ft 130 kts 27°
2026-05-07 19:16 44.34322 -65.55439 5028 ft 131 kts 28°
2026-05-07 19:16 44.35080 -65.54722 4990 ft 133 kts 26°
2026-05-07 19:17 44.35847 -65.54030 4985 ft 132 kts 25°
2026-05-07 19:17 44.36626 -65.53344 4973 ft 132 kts 25°
2026-05-07 19:17 44.37399 -65.52653 4976 ft 132 kts 26°
2026-05-07 19:17 44.38158 -65.51947 4991 ft 131 kts 28°
2026-05-07 19:18 44.38913 -65.51208 4981 ft 133 kts 27°
2026-05-07 19:18 44.39668 -65.50484 5003 ft 131 kts 27°
2026-05-07 19:18 44.40425 -65.49745 4997 ft 133 kts 28°
2026-05-07 19:18 44.41167 -65.49003 5042 ft 130 kts 29°
2026-05-07 19:19 44.41922 -65.48256 5015 ft 134 kts 31°
2026-05-07 19:19 44.42654 -65.47466 5007 ft 134 kts 32°
2026-05-07 19:19 44.43372 -65.46675 5012 ft 134 kts 32°
2026-05-07 19:19 44.44130 -65.45880 5003 ft 135 kts 31°
2026-05-07 19:20 44.44896 -65.45154 5014 ft 132 kts 25°
2026-05-07 19:20 44.45710 -65.44613 5006 ft 131 kts 14°
2026-05-07 19:20 44.46514 -65.43963 4990 ft 133 kts 28°
2026-05-07 19:20 44.47284 -65.43220 4962 ft 136 kts 29°
2026-05-07 19:21 44.48052 -65.42478 4999 ft 131 kts 28°
2026-05-07 19:21 44.48807 -65.41737 4983 ft 133 kts 30°
2026-05-07 19:21 44.49556 -65.40997 5002 ft 132 kts 28°
2026-05-07 19:21 44.50324 -65.40307 5003 ft 131 kts 25°
2026-05-07 19:22 44.51095 -65.39657 5035 ft 129 kts 22°
2026-05-07 19:22 44.51902 -65.39092 5047 ft 129 kts 19°
2026-05-07 19:22 44.52680 -65.38479 5051 ft 132 kts 25°
2026-05-07 19:22 44.53454 -65.37726 4982 ft 138 kts 30°
2026-05-07 19:23 44.54214 -65.36950 4976 ft 136 kts 31°
2026-05-07 19:23 44.54974 -65.36170 4979 ft 134 kts 32°
2026-05-07 19:23 44.55726 -65.35406 5006 ft 131 kts 31°
2026-05-07 19:23 44.56459 -65.34653 5017 ft 132 kts 31°
2026-05-07 19:24 44.57167 -65.33806 5027 ft 134 kts 40°
2026-05-07 19:24 44.57837 -65.32899 5034 ft 135 kts 33°
2026-05-07 19:24 44.58592 -65.32103 5025 ft 135 kts 31°
2026-05-07 19:24 44.59345 -65.31339 5018 ft 134 kts 29°
2026-05-07 19:25 44.60112 -65.30599 5020 ft 133 kts 28°
2026-05-07 19:25 44.60888 -65.29880 5026 ft 135 kts 28°
2026-05-07 19:25 44.61668 -65.29128 5016 ft 136 kts 31°
2026-05-07 19:25 44.62431 -65.28348 5030 ft 136 kts 32°
2026-05-07 19:26 44.63180 -65.27542 5050 ft 134 kts 33°
2026-05-07 19:26 44.63918 -65.26718 5020 ft 136 kts 33°
2026-05-07 19:26 44.64644 -65.25859 5011 ft 136 kts 37°
2026-05-07 19:26 44.65355 -65.24985 5013 ft 136 kts 36°
2026-05-07 19:27 44.66078 -65.24129 4997 ft 136 kts 34°
2026-05-07 19:27 44.66798 -65.23252 4955 ft 138 kts 38°
2026-05-07 19:27 44.67496 -65.22365 4879 ft 135 kts 39°
2026-05-07 19:27 44.68179 -65.21444 4721 ft 139 kts 41°
2026-05-07 19:28 44.68857 -65.20499 4611 ft 136 kts 41°
2026-05-07 19:28 44.69515 -65.19499 4440 ft 140 kts 46°
2026-05-07 19:28 44.70145 -65.18472 4270 ft 140 kts 47°
2026-05-07 19:28 44.70766 -65.17421 4107 ft 140 kts 51°
2026-05-07 19:29 44.71348 -65.16338 3963 ft 135 kts 55°
2026-05-07 19:29 44.71887 -65.15224 3753 ft 138 kts 57°
2026-05-07 19:29 44.72399 -65.14119 3635 ft 133 kts 57°
2026-05-07 19:29 44.72909 -65.13016 3448 ft 134 kts 58°
2026-05-07 19:30 44.73415 -65.11930 3291 ft 133 kts 54°
2026-05-07 19:30 44.73955 -65.10876 3122 ft 131 kts 54°
2026-05-07 19:30 44.74495 -65.09845 2942 ft 132 kts 52°
2026-05-07 19:30 44.75054 -65.08829 2842 ft 131 kts 52°
2026-05-07 19:31 44.75606 -65.07827 2823 ft 129 kts 51°
2026-05-07 19:31 44.76139 -65.06814 2831 ft 126 kts 54°
2026-05-07 19:31 44.76642 -65.05790 2824 ft 129 kts 56°
2026-05-07 19:31 44.77144 -65.04766 2845 ft 126 kts 56°
2026-05-07 19:32 44.77622 -65.03722 2816 ft 127 kts 59°
2026-05-07 19:32 44.78093 -65.02649 2836 ft 128 kts 60°
2026-05-07 19:32 44.78529 -65.01561 2826 ft 129 kts 64°
2026-05-07 19:32 44.78947 -65.00463 2876 ft 126 kts 63°
2026-05-07 19:33 44.79367 -64.99349 2847 ft 130 kts 63°
2026-05-07 19:33 44.79788 -64.98246 2886 ft 128 kts 65°
2026-05-07 19:33 44.80212 -64.97130 2884 ft 127 kts 60°
2026-05-07 19:33 44.80665 -64.96061 2862 ft 128 kts 62°
2026-05-07 19:34 44.81127 -64.95002 2890 ft 126 kts 61°
2026-05-07 19:34 44.81572 -64.93907 2872 ft 128 kts 63°
2026-05-07 19:34 44.81981 -64.92827 2833 ft 126 kts 68°
2026-05-07 19:34 44.82363 -64.91732 2788 ft 124 kts 62°
2026-05-07 19:35 44.82831 -64.90725 2727 ft 122 kts 56°
2026-05-07 19:35 44.83310 -64.89730 2681 ft 122 kts 56°
2026-05-07 19:35 44.83800 -64.88776 2701 ft 116 kts 51°
2026-05-07 19:35 44.84284 -64.87883 2712 ft 116 kts 58°
2026-05-07 19:36 44.84712 -64.86927 2721 ft 116 kts 57°
2026-05-07 19:36 44.85193 -64.86014 2778 ft 114 kts 49°
2026-05-07 19:36 44.85719 -64.85175 2798 ft 116 kts 49°
2026-05-07 19:36 44.86244 -64.84306 2835 ft 115 kts 48°
2026-05-07 19:37 44.86788 -64.83447 2830 ft 120 kts 47°
2026-05-07 19:37 44.87340 -64.82580 2857 ft 119 kts 46°
2026-05-07 19:37 44.87897 -64.81688 2841 ft 121 kts 51°
2026-05-07 19:37 44.88451 -64.80792 2846 ft 121 kts 49°
2026-05-07 19:38 44.89009 -64.79917 2812 ft 120 kts 47°
2026-05-07 19:38 44.89587 -64.79059 2747 ft 120 kts 44°
2026-05-07 19:38 44.90190 -64.78266 2701 ft 119 kts 39°
2026-05-07 19:38 44.90831 -64.77545 2689 ft 114 kts 34°
2026-05-07 19:39 44.91474 -64.76890 2655 ft 116 kts 31°
2026-05-07 19:39 44.92148 -64.76291 2683 ft 113 kts 25°
2026-05-07 19:39 44.92851 -64.75776 2680 ft 114 kts 22°
2026-05-07 19:39 44.93552 -64.75295 2672 ft 114 kts 19°
2026-05-07 19:40 44.94269 -64.74803 2689 ft 114 kts 22°
2026-05-07 19:40 44.94935 -64.74218 2680 ft 117 kts 34°
2026-05-07 19:40 44.95569 -64.73516 2695 ft 114 kts 34°
2026-05-07 19:40 44.96239 -64.72896 2663 ft 116 kts 25°
2026-05-07 19:41 44.96936 -64.72375 2658 ft 115 kts 24°
2026-05-07 19:41 44.97617 -64.71771 2716 ft 113 kts 30°
2026-05-07 19:41 44.98288 -64.71154 2720 ft 117 kts 30°
2026-05-07 19:41 44.98957 -64.70533 2743 ft 116 kts 26°
2026-05-07 19:42 44.99678 -64.70036 2756 ft 114 kts 15°
2026-05-07 19:42 45.00442 -64.69791 2778 ft 111 kts 354°
2026-05-07 19:42 45.01198 -64.69747 2823 ft 108 kts 354°
2026-05-07 19:42 45.01957 -64.69653 2742 ft 112 kts 354°
2026-05-07 19:43 45.02706 -64.69557 2781 ft 108 kts 356°
2026-05-07 19:43 45.03464 -64.69461 2772 ft 109 kts 353°
2026-05-07 19:43 45.04208 -64.69438 2786 ft 107 kts 346°
2026-05-07 19:43 45.04925 -64.69636 2720 ft 103 kts 328°
2026-05-07 19:44 45.05517 -64.70114 2692 ft 92 kts 306°
2026-05-07 19:44 45.05775 -64.70871 2558 ft 84 kts 265°
2026-05-07 19:44 45.05509 -64.71573 2416 ft 82 kts 230°
2026-05-07 19:44 45.05193 -64.72207 2401 ft 75 kts 238°
2026-05-07 19:45 45.04938 -64.72883 2314 ft 78 kts 240°
2026-05-07 19:45 45.04720 -64.73551 2244 ft 72 kts 243°
2026-05-07 19:45 45.04521 -64.74183 2191 ft 72 kts 245°
2026-05-07 19:45 45.04340 -64.74810 2167 ft 68 kts 244°
2026-05-07 19:46 45.04160 -64.75441 2088 ft 69 kts 243°
2026-05-07 19:46 45.03943 -64.76055 1976 ft 71 kts 237°
2026-05-07 19:46 45.03706 -64.76651 1875 ft 71 kts 239°
2026-05-07 19:46 45.03478 -64.77265 1798 ft 71 kts 241°
2026-05-07 19:47 45.03272 -64.77908 1733 ft 72 kts 244°
2026-05-07 19:47 45.03073 -64.78551 1675 ft 72 kts 244°
2026-05-07 19:47 45.02882 -64.79205 1619 ft 72 kts 246°
2026-05-07 19:47 45.02715 -64.79855 1591 ft 70 kts 247°
2026-05-07 19:48 45.02534 -64.80505 1554 ft 73 kts 244°
2026-05-07 19:48 45.02320 -64.81173 1514 ft 75 kts 243°
2026-05-07 19:48 45.02093 -64.81811 1521 ft 72 kts 241°
2026-05-07 19:48 45.01866 -64.82448 1493 ft 72 kts 240°
2026-05-07 19:49 45.01620 -64.83068 1450 ft 73 kts 240°
2026-05-07 19:49 45.01376 -64.83695 1415 ft 74 kts 238°
2026-05-07 19:49 45.01135 -64.84307 1385 ft 68 kts 240°
2026-05-07 19:49 45.00926 -64.84903 1293 ft 68 kts 243°
2026-05-07 19:50 45.00740 -64.85500 1217 ft 66 kts 243°
2026-05-07 19:50 45.00559 -64.86093 1131 ft 66 kts 244°
2026-05-07 19:50 45.00376 -64.86686 1034 ft 65 kts 244°
2026-05-07 19:50 45.00187 -64.87274 925 ft 66 kts 244°
2026-05-07 19:51 44.99988 -64.87858 815 ft 66 kts 240°
2026-05-07 19:51 44.99785 -64.88438 690 ft 67 kts 244°
2026-05-07 19:51 44.99582 -64.89026 560 ft 66 kts 243°
2026-05-07 19:51 44.99393 -64.89607 401 ft 65 kts 243°
2026-05-07 19:52 44.99197 -64.90189 218 ft 68 kts 243°
2026-05-07 19:52 44.99004 -64.90759 92 ft 54 kts 244°
2026-05-07 19:52 44.98868 -64.91159 83 ft 37 kts 244°
2026-05-07 19:52 44.98773 -64.91436 84 ft 23 kts 247°
2026-05-07 19:53 44.98713 -64.91517 84 ft 11 kts 176°
2026-05-07 19:53 44.98647 -64.91504 85 ft 2 kts 159°
2026-05-07 19:54 44.98627 -64.91497 87 ft 9 kts 170°
2026-05-07 19:54 44.98527 -64.91474 85 ft 20 kts 168°
2026-05-07 19:54 44.98379 -64.91437 84 ft 23 kts 170°
2026-05-07 19:54 44.98219 -64.91399 84 ft 24 kts 170°
2026-05-07 19:55 44.98079 -64.91363 84 ft 16 kts 172°
2026-05-07 19:55 44.97983 -64.91348 86 ft 10 kts 173°
2026-05-07 19:55 44.97926 -64.91393 84 ft 12 kts 246°
2026-05-07 19:55 44.97885 -64.91507 84 ft 13 kts 239°
2026-05-07 19:56 44.97856 -64.91583 84 ft 4 kts 245°
2026-05-07 19:56 44.97838 -64.91634 84 ft 8 kts 240°
2026-05-07 19:56 44.97811 -64.91723 84 ft 11 kts 252°
2026-05-07 19:56 44.97800 -64.91812 85 ft 8 kts 250°
2026-05-07 19:57 44.97804 -64.91861 84 ft 6 kts 353°
2026-05-07 19:57 44.97849 -64.91855 84 ft 7 kts 360°
2026-05-07 19:57 44.97897 -64.91874 84 ft 7 kts 303°
2026-05-07 19:57 44.97911 -64.91934 84 ft 6 kts 282°
2026-05-07 19:58 44.97919 -64.91992 84 ft 1 kts 292°